Relief, North Carolina
Current Conditions -  °F | °C
As of 4:15 AM on Monday 20 Oct 2014 (Local Time) from K0A9 Reporting Station
Clear Clear  
Wind Chill:   Ceiling: Unl
Heat Index:   Visibility: 10mi
Dew Point:   Wind: 0mph
Humidity: 100%   Direction: NA
Pressure: 30.1"   Gusts: NA
Location:  35.955°N, 82.2044°W
Report Text: K0A9 200815Z AUTO 00000KT 10SM CLR 04/04 A3010 RMK
Loading
Personal Weather Stations






























Interactive Weather Map
Tropical Storm Tracking
New forecast layout! Learn more

10-Day Weather Forecast

Advertisements
Track Severe Weather on mobile